Aérodrome :
LOGIN :

S'inscrire | Disclaimer

   EN    FR    IT 

 










Légende :    VFR   VFR Marginal   IFR   IFR Intensif   IFR Très Intensif
Visi : 
Plafond : 
>= 8 km
>= 3000ft
5 à 8 km
1000 à 3000 ft
1500m à 5 km
500 à 1000 ft
800 à 1500m
200 à 500 ft
< 800m
< 200 ft
Symboles :   Orages  Brouillard  Fortes neiges  Fortes précipitations  Vent > 20 kt
SIGMETs :   Divers  Orages  Givrage  Turbulence  Onde Orograph.  Cendres Volcan.






- Altitude de l'aérodrome : 464 ft
- Code IATA : EVX


LFOE - Evreux

DERNIER METAR :
  • 291430Z AUTO 05012KT 020V090 CAVOK 24/03 Q1022 NOSIG

METARs EXPIRÉS :
  • 291400Z AUTO 05009KT 020V080 CAVOK 23/04 Q1023 NOSIG
  • 291330Z AUTO 07010KT 040V100 CAVOK 23/03 Q1023 NOSIG
  • 291300Z AUTO 07010KT 040V100 CAVOK 23/03 Q1024 NOSIG
  • 291230Z AUTO 07010KT 030V130 CAVOK 23/05 Q1024 NOSIG
  • 291200Z AUTO 07011KT 030V110 CAVOK 22/04 Q1024 NOSIG

TAF TAF LFOE
Valide du 29 à 15h jusqu'au 30 à 15h UTC


291400Z 2915/3015 05010KT CAVOK



MET'MAP, la Météo Aéronautique d'un coup d'oeil ! - Copyright ORBIFLY Décembre 2007 - Disclaimer

ORBIFLY MET'MAP TEAM :

Programmation & Développement : Alexandra Zaïnal
Sur une idée originale de : Baudouin d'Aumeries
Assistance à la programmation : Marc-Olivier Méhu
Soutien technique & logistique : Manuel Goepfert

Contact : metmap@orbifly.com




SOURCES & CREDITS :

   NOAA